Flight Track Log - Related Links

Times and Time Zones

All times are in EDT time to prevent confusion due to time zone crossing. See the AMF1026 flight status page for this flight to view local times or setup timezone preferences in your user account.

Time Position Orientation Groundspeed Altitude Reporting Facility
EDT Latitude Longitude Course Direction KTS MPH feet Rate Location/Type
Tue 08:41:10 PM 42.7278 -73.8081 179° South 136 157 1,300  Level Boston Center
Tue 08:42:16 PM 42.6778 -73.8069 179° South 185 213 3,000 1,559 Climbing Boston Center
Tue 08:43:17 PM 42.6789 -73.8747 271° West 220 253 4,600 1,389 Climbing Boston Center
Tue 08:43:51 PM 42.6911 -73.9089 296° West 220 253 5,200 1,277 Climbing Boston Center
Tue 08:44:51 PM 42.7150 -73.9831 294° West 227 261 6,600 1,400 Climbing Boston Center
Tue 08:45:51 PM 42.7389 -74.0628 292° West 227 261 8,000 1,550 Climbing Boston Center
Tue 08:46:51 PM 42.7522 -74.1508 282° West 222 255 9,700 1,450 Climbing Boston Center
Tue 08:47:51 PM 42.7572 -74.2272 275° West 222 255 10,900 1,300 Climbing Boston Center
Tue 08:48:51 PM 42.7683 -74.3181 279° West 222 255 12,300 1,400 Climbing Boston Center
Tue 08:49:51 PM 42.7775 -74.3892 280° West 217 250 13,700 1,250 Climbing Boston Center
Tue 08:50:51 PM 42.7678 -74.4764 261° West 217 250 14,800 1,150 Climbing Boston Center
Tue 08:51:51 PM 42.7436 -74.5408 243° Southwest 217 250 16,000 1,200 Climbing Boston Center
Tue 08:52:51 PM 42.7172 -74.6189 245° Southwest 217 250 17,200 1,050 Climbing Boston Center
Tue 08:53:51 PM 42.6992 -74.6833 249° West 217 250 18,100 900 Climbing Boston Center
Tue 08:54:51 PM 42.6789 -74.7672 252° West 217 250 19,000 800 Climbing Boston Center
Tue 08:55:51 PM 42.6606 -74.8400 251° West 217 250 19,700 500 Climbing Boston Center
Tue 08:56:51 PM 42.6339 -74.9181 245° Southwest 223 257 20,000 150 Climbing Boston Center
Tue 08:57:51 PM 42.5967 -74.9956 237° Southwest 240 276 20,000  Level Boston Center
Tue 08:58:51 PM 42.5594 -75.0814 240° Southwest 254 292 20,000  Level Boston Center
Tue 09:00:31 PM 42.4956 -75.2194 238° Southwest 271 312 20,000  Level New York Center
Tue 09:01:29 PM 42.4569 -75.3067 239° Southwest 271 312 20,000  Level New York Center
Tue 09:02:30 PM 42.4267 -75.3917 244° Southwest 263 303 20,000  Level New York Center
Tue 09:03:31 PM 42.3961 -75.4792 245° Southwest 258 297 20,000  Level New York Center
Tue 09:04:31 PM 42.3697 -75.5672 248° West 253 291 20,000  Level New York Center
Tue 09:05:29 PM 42.3414 -75.6519 246° West 253 291 20,000  Level New York Center
Tue 09:06:30 PM 42.3086 -75.7364 242° Southwest 253 291 20,000  Level New York Center
Tue 09:07:30 PM 42.2719 -75.8206 240° Southwest 253 291 20,000  Level New York Center
Tue 09:08:31 PM 42.2350 -75.9019 239° Southwest 258 297 20,000  Level New York Center
Tue 09:09:28 PM 42.2022 -75.9861 242° Southwest 258 297 20,000  Level New York Center
Tue 09:10:29 PM 42.1756 -76.0733 248° West 258 297 20,000  Level New York Center
Tue 09:11:29 PM 42.1508 -76.1608 249° West 253 291 20,000  Level New York Center
Tue 09:12:30 PM 42.1217 -76.2508 246° West 253 291 20,000  Level New York Center
Tue 09:13:29 PM 42.0950 -76.3353 247° West 253 291 20,000  Level New York Center
Tue 09:14:30 PM 42.0678 -76.4253 248° West 253 291 20,000  Level New York Center
Tue 09:15:31 PM 42.0428 -76.5125 249° West 253 291 20,000  Level New York Center
Tue 09:16:28 PM 42.0156 -76.6022 248° West 253 291 20,000  Level New York Center
Tue 09:17:29 PM 41.9883 -76.6864 247° West 253 291 20,000  Level New York Center
Tue 09:18:30 PM 41.9550 -76.7725 243° Southwest 253 291 20,000  Level New York Center
Tue 09:19:31 PM 41.9239 -76.8533 243° Southwest 253 291 20,000  Level New York Center
Tue 09:20:29 PM 41.8883 -76.9336 239° Southwest 253 291 20,000  Level New York Center
Tue 09:21:28 PM 41.8508 -77.0167 239° Southwest 258 297 20,000  Level New York Center
Tue 09:22:30 PM 41.8128 -77.1047 240° Southwest 258 297 20,000  Level New York Center
Tue 09:23:30 PM 41.7750 -77.1875 239° Southwest 258 297 20,000  Level New York Center
Tue 09:24:30 PM 41.7456 -77.2708 245° Southwest 258 297 20,000  Level New York Center
Tue 09:25:31 PM 41.7075 -77.3561 239° Southwest 258 297 20,000  Level New York Center
Tue 09:27:21 PM 41.6567 -77.5286 249° West 251 289 20,000  Level Cleveland Center
Tue 09:28:21 PM 41.6300 -77.6217 249° West 258 297 20,000  Level Cleveland Center
Tue 09:29:21 PM 41.6050 -77.7117 250° West 263 303 20,000  Level Cleveland Center
Tue 09:30:21 PM 41.5761 -77.8017 247° West 263 303 20,000  Level Cleveland Center
Tue 09:31:21 PM 41.5406 -77.8892 242° Southwest 268 308 20,000  Level Cleveland Center
Tue 09:32:21 PM 41.5050 -77.9739 241° Southwest 268 308 20,000  Level Cleveland Center
Tue 09:33:21 PM 41.4756 -78.0583 245° Southwest 268 308 20,000  Level Cleveland Center
Tue 09:34:21 PM 41.4567 -78.1450 254° West 268 308 20,000  Level Cleveland Center
Tue 09:35:21 PM 41.4336 -78.2400 252° West 268 308 20,000  Level Cleveland Center
Tue 09:36:21 PM 41.4106 -78.3322 252° West 268 308 20,000  Level Cleveland Center
Tue 09:37:21 PM 41.3831 -78.4272 249° West 268 308 20,000  Level Cleveland Center
Tue 09:38:21 PM 41.3558 -78.5278 250° West 273 314 20,000  Level Cleveland Center
Tue 09:39:21 PM 41.3283 -78.6200 248° West 273 314 20,000  Level Cleveland Center
Tue 09:40:21 PM 41.2964 -78.7092 245° Southwest 273 314 20,000  Level Cleveland Center
Tue 09:41:21 PM 41.2667 -78.7986 246° West 273 314 20,000  Level Cleveland Center
Tue 09:42:21 PM 41.2303 -78.8881 242° Southwest 278 320 20,000  Level Cleveland Center
Tue 09:43:21 PM 41.1942 -78.9744 241° Southwest 278 320 20,000  Level Cleveland Center
Tue 09:44:21 PM 41.1578 -79.0608 241° Southwest 278 320 20,000  Level Cleveland Center
Tue 09:45:21 PM 41.1256 -79.1525 245° Southwest 278 320 20,000  Level Cleveland Center
Tue 09:46:21 PM 41.0956 -79.2550 249° West 283 326 20,000  Level Cleveland Center
Tue 09:47:21 PM 41.0694 -79.3547 251° West 288 331 20,000  Level Cleveland Center
Tue 09:48:21 PM 41.0433 -79.4517 250° West 288 331 20,000  Level Cleveland Center
Tue 09:49:21 PM 41.0194 -79.5539 253° West 288 331 20,000  Level Cleveland Center
Tue 09:50:21 PM 40.9911 -79.6561 250° West 288 331 20,000  Level Cleveland Center
Tue 09:51:21 PM 40.9647 -79.7528 250° West 288 331 20,000  Level Cleveland Center
Tue 09:52:21 PM 40.9319 -79.8492 246° West 288 331 20,000  Level Cleveland Center
Tue 09:53:21 PM 40.9033 -79.9486 249° West 293 337 20,000  Level Cleveland Center
Tue 09:54:21 PM 40.8789 -80.0475 252° West 293 337 20,000  Level Cleveland Center
Tue 09:55:21 PM 40.8503 -80.1494 250° West 293 337 20,000  Level Cleveland Center
Tue 09:56:21 PM 40.8150 -80.2431 244° Southwest 293 337 20,000  Level Cleveland Center
Tue 09:57:21 PM 40.7694 -80.3281 235° Southwest 293 337 20,000  Level Cleveland Center
Tue 09:58:21 PM 40.7278 -80.4050 234° Southwest 293 337 20,000  Level Cleveland Center
Tue 09:59:21 PM 40.6800 -80.4928 234° Southwest 293 337 20,000  Level Cleveland Center
Tue 10:00:21 PM 40.6322 -80.5914 237° Southwest 293 337 20,000  Level Cleveland Center
Tue 10:01:21 PM 40.5883 -80.6733 235° Southwest 293 337 20,000  Level Cleveland Center
Tue 10:02:21 PM 40.5422 -80.7581 234° Southwest 288 331 20,000  Level Cleveland Center
Tue 10:03:21 PM 40.4922 -80.8397 231° Southwest 288 331 20,000  Level Cleveland Center
Tue 10:04:21 PM 40.4481 -80.9158 233° Southwest 293 337 20,000  Level Cleveland Center
Tue 10:05:21 PM 40.3978 -81.0003 232° Southwest 293 337 20,000  Level Cleveland Center
Tue 10:06:21 PM 40.3494 -81.0844 233° Southwest 293 337 20,000  Level Cleveland Center
Tue 10:07:21 PM 40.3033 -81.1711 235° Southwest 293 337 20,000  Level Cleveland Center
Tue 10:09:08 PM 40.2158 -81.3303 234° Southwest 292 336 20,000  Level Indianapolis Center
Tue 10:10:09 PM 40.1686 -81.4208 236° Southwest 298 343 20,000  Level Indianapolis Center
Tue 10:11:10 PM 40.1214 -81.5092 235° Southwest 295 339 20,000  Level Indianapolis Center
Tue 10:12:11 PM 40.0725 -81.5950 233° Southwest 291 335 20,000  Level Indianapolis Center
Tue 10:13:13 PM 40.0247 -81.6831 235° Southwest 293 337 20,000  Level Indianapolis Center
Tue 10:14:14 PM 39.9783 -81.7742 236° Southwest 299 344 20,000  Level Indianapolis Center
Tue 10:15:15 PM 39.9358 -81.8653 239° Southwest 295 339 20,000  Level Indianapolis Center
Tue 10:16:16 PM 39.8964 -81.9617 242° Southwest 300 345 20,000  Level Indianapolis Center
Tue 10:17:17 PM 39.8578 -82.0578 242° Southwest 298 343 20,000  Level Indianapolis Center
Tue 10:18:18 PM 39.8250 -82.1567 247° West 296 341 20,000  Level Indianapolis Center
Tue 10:19:19 PM 39.7933 -82.2556 247° West 295 339 20,000  Level Indianapolis Center
Tue 10:20:20 PM 39.7617 -82.3728 251° West 294 338 20,000  Level Indianapolis Center
Tue 10:21:21 PM 39.7336 -82.4725 250° West 290 334 20,000  Level Indianapolis Center
Tue 10:22:22 PM 39.7058 -82.5733 250° West 293 337 20,000  Level Indianapolis Center
Tue 10:23:23 PM 39.6786 -82.6744 251° West 294 338 20,000 -295 Level Indianapolis Center
Tue 10:24:24 PM 39.6514 -82.7764 251° West 295 339 19,400 -836 Descending Indianapolis Center
Tue 10:25:25 PM 39.6208 -82.8842 250° West 314 361 18,300 -1,131 Descending Indianapolis Center
Tue 10:26:26 PM 39.5936 -82.9889 251° West 306 352 17,100 -1,180 Descending Indianapolis Center
Tue 10:27:27 PM 39.5631 -83.0925 249° West 305 351 15,900 -1,082 Descending Indianapolis Center
Tue 10:28:28 PM 39.5356 -83.1933 251° West 297 342 14,900 -984 Descending Indianapolis Center
Tue 10:29:29 PM 39.5083 -83.2914 250° West 289 333 13,900 -1,033 Descending Indianapolis Center
Tue 10:30:30 PM 39.4828 -83.3867 251° West 281 323 12,800 -1,103 Descending Indianapolis Center
Tue 10:30:56 PM 39.4722 -83.4283 252° West 277 319 12,300 -1,082 Descending Indianapolis Center
Tue 10:31:31 PM 39.4572 -83.4811 250° West 275 316 11,700 -987 Descending Indianapolis Center
Tue 10:32:15 PM 39.4383 -83.5483 250° West 274 315 11,000 -689 Descending Indianapolis Center
Tue 10:32:32 PM 39.4292 -83.5742 245° Southwest 276 318 11,000 -600 Level Indianapolis Center
Tue 10:33:15 PM 39.4128 -83.6372 251° West 263 303 10,400 -1,065 Descending Indianapolis Center
Tue 10:33:34 PM 39.4019 -83.6639 242° Southwest 268 308 9,900 -1,350 Descending Indianapolis Center
Tue 10:34:35 PM 39.3675 -83.7489 242° Southwest 264 304 8,600 -1,230 Descending Indianapolis Center
Tue 10:35:36 PM 39.3336 -83.8314 242° Southwest 260 299 7,400 -1,131 Descending Indianapolis Center
Tue 10:36:37 PM 39.3014 -83.9117 243° Southwest 255 293 6,300 -738 Descending Indianapolis Center
Tue 10:37:38 PM 39.2644 -83.9897 239° Southwest 252 290 5,900 -148 Descending Indianapolis Center
Tue 10:38:39 PM 39.2242 -84.0697 237° Southwest 258 297 6,000 -246 Climbing Indianapolis Center
Tue 10:39:40 PM 39.1925 -84.1572 245° Southwest 263 303 5,400 -492 Descending Indianapolis Center
Tue 10:40:41 PM 39.1694 -84.2450 251° West 259 298 5,000 -197 Descending Indianapolis Center
Tue 10:41:42 PM 39.1442 -84.3319 249° West 257 296 5,000 -344 Level Indianapolis Center
Tue 10:42:43 PM 39.1208 -84.4186 251° West 257 296 4,300 -714 Descending Indianapolis Center
Tue 10:43:06 PM 39.1167 -84.4500 260° West 253 291 4,000 -651 Descending Cincinnati TRACON
Tue 10:44:06 PM 39.1000 -84.5333 256° West 211 243 3,400 -750 Descending Cincinnati TRACON
Tue 10:45:06 PM 39.1167 -84.6000 288° West 199 229 2,500 -850 Descending Cincinnati TRACON
Tue 10:46:06 PM 39.1167 -84.6667 270° West 151 174 1,700 -700 Descending Cincinnati TRACON
Tue 10:47:06 PM 39.0833 -84.6833 201° Southwest 120 138 1,100 -600 Descending Cincinnati TRACON
Tue 10:49:00 PM 39.0488 -84.6678 247° West  Level Estimated

Login

Don't have an account? Register now (free) for customized features, flight alerts, and more!